Trf Partici — A8UF9 — position and weather

sailwx.info

Track history (hours):
 
Tides and Currents Weather Stations Pressure Air Temp Water Temp Dewpoint Dewpoint Depression Visibility Wind Speed Wind Dir Waves Ship Positions

Trf Partici

Last reported at 2018-Jul-19 13:10 UTC. Time now 2018-Jul-20 10:41 UTC.
Position N 36°04' W 006°16'.

Length 231 m; draft 7.8 m.

Type: Cargo ship. MMSI: 636017994.

Date/timePositionNaut miles runAvg speedWind from/ knotsBaromVisibWave heightAir tempDewpointWater temp
2018-Jul-19 13:10N 36°04' W 006°16'0 0.0
2018-Jul-19 06:52N 36°04' W 006°17'0 0.1
2018-Jul-19 05:19N 36°04' W 006°17'0 0.0
2018-Jul-19 04:52N 36°04' W 006°17'0 0.0
2018-Jul-19 04:04N 36°04' W 006°17'32 0.9
2018-Jul-17 18:09N 35°58' W 005°38'216.9
2018-Jul-17 18:00N 35°58' W 005°35'5 0.3
2018-Jul-17 00:23N 35°56' W 005°30'5 2.4
2018-Jul-16 22:30N 35°55' W 005°36'5 8.9
2018-Jul-16 21:57N 35°54' W 005°42'510.6
2018-Jul-16 21:30N 35°54' W 005°48'712.7
2018-Jul-16 20:56N 35°53' W 005°56'60314.7
2018-Jul-15 03:58N 28°07' W 013°29'2216.4
2018-Jul-15 02:37N 27°49' W 013°43'316.0
2018-Jul-15 02:25N 27°47' W 013°46'  
2018-Jul-10 01:13N 05°08' W 000°10'418.4
2018-Jul-10 01:00N 05°11' W 000°07'918.6
2018-Jul-10 00:31N 05°18' W 000°02'1019.0
2018-Jul-10 00:01N 05°26' E 000°03'816.7
2018-Jul-09 23:30N 05°35' E 000°06'510.3
2018-Jul-09 23:00N 05°38' E 000°02'1 2.0
2018-Jul-09 22:30N 05°37' E 000°01'0 0.0
2018-Jul-09 22:00N 05°37' E 000°00'0 0.0
2018-Jul-09 21:30N 05°37' E 000°00'0 0.0
2018-Jul-09 21:00N 05°37' E 000°00'0 0.0
2018-Jul-09 20:30N 05°37' E 000°00'0 0.0
2018-Jul-09 20:00N 05°37' E 000°00'0 0.0
2018-Jul-09 19:30N 05°37' E 000°00'0 0.0
2018-Jul-09 19:00N 05°37' E 000°00'0 0.0
2018-Jul-09 18:30N 05°37' E 000°00'0 0.0
2018-Jul-09 18:00N 05°37' E 000°00'0 0.0
2018-Jul-09 17:30N 05°37' E 000°00'0 0.0
2018-Jul-09 17:00N 05°37' E 000°00'0 0.0
2018-Jul-09 16:30N 05°37' E 000°00'0 0.0
2018-Jul-09 16:00N 05°37' E 000°00'0 0.0
2018-Jul-09 15:30N 05°37' E 000°00'0 0.0
2018-Jul-09 15:00N 05°37' E 000°00'0 0.0
2018-Jul-09 14:30N 05°37' E 000°00'0 0.0
2018-Jul-09 14:00N 05°37' E 000°00'0 0.0
2018-Jul-09 13:30N 05°37' E 000°00'  
Track history (hours):
 
Tides and Currents Weather Stations Pressure Air Temp Water Temp Dewpoint Dewpoint Depression Visibility Wind Speed Wind Dir Waves Ship Positions

Trf Partici

Last reported at 2018-Jul-19 13:10 UTC. Time now 2018-Jul-20 10:41 UTC.
Position N 36°04' W 006°16'.

Length 231 m; draft 7.8 m.

Type: Cargo ship. MMSI: 636017994.

Date/timePositionNaut miles runAvg speedWind from/ knotsBaromVisibWave heightAir tempDewpointWater temp
2018-Jul-19 13:10N 36°04' W 006°16'0 0.0
2018-Jul-19 06:52N 36°04' W 006°17'0 0.1
2018-Jul-19 05:19N 36°04' W 006°17'0 0.0
2018-Jul-19 04:52N 36°04' W 006°17'0 0.0
2018-Jul-19 04:04N 36°04' W 006°17'32 0.9
2018-Jul-17 18:09N 35°58' W 005°38'216.9
2018-Jul-17 18:00N 35°58' W 005°35'5 0.3
2018-Jul-17 00:23N 35°56' W 005°30'5 2.4
2018-Jul-16 22:30N 35°55' W 005°36'5 8.9
2018-Jul-16 21:57N 35°54' W 005°42'510.6
2018-Jul-16 21:30N 35°54' W 005°48'712.7
2018-Jul-16 20:56N 35°53' W 005°56'60314.7
2018-Jul-15 03:58N 28°07' W 013°29'2216.4
2018-Jul-15 02:37N 27°49' W 013°43'316.0
2018-Jul-15 02:25N 27°47' W 013°46'  
2018-Jul-10 01:13N 05°08' W 000°10'418.4
2018-Jul-10 01:00N 05°11' W 000°07'918.6
2018-Jul-10 00:31N 05°18' W 000°02'1019.0
2018-Jul-10 00:01N 05°26' E 000°03'816.7
2018-Jul-09 23:30N 05°35' E 000°06'510.3
2018-Jul-09 23:00N 05°38' E 000°02'1 2.0
2018-Jul-09 22:30N 05°37' E 000°01'0 0.0
2018-Jul-09 22:00N 05°37' E 000°00'0 0.0
2018-Jul-09 21:30N 05°37' E 000°00'0 0.0
2018-Jul-09 21:00N 05°37' E 000°00'0 0.0
2018-Jul-09 20:30N 05°37' E 000°00'0 0.0
2018-Jul-09 20:00N 05°37' E 000°00'0 0.0
2018-Jul-09 19:30N 05°37' E 000°00'0 0.0
2018-Jul-09 19:00N 05°37' E 000°00'0 0.0
2018-Jul-09 18:30N 05°37' E 000°00'0 0.0
2018-Jul-09 18:00N 05°37' E 000°00'0 0.0
2018-Jul-09 17:30N 05°37' E 000°00'0 0.0
2018-Jul-09 17:00N 05°37' E 000°00'0 0.0
2018-Jul-09 16:30N 05°37' E 000°00'0 0.0
2018-Jul-09 16:00N 05°37' E 000°00'0 0.0
2018-Jul-09 15:30N 05°37' E 000°00'0 0.0
2018-Jul-09 15:00N 05°37' E 000°00'0 0.0
2018-Jul-09 14:30N 05°37' E 000°00'0 0.0
2018-Jul-09 14:00N 05°37' E 000°00'0 0.0
2018-Jul-09 13:30N 05°37' E 000°00'  

Dump ship's entire track history